Concord, North Carolina
Current Conditions -  °F | °C
As of 1:35 AM on Wednesday 28 Jan 2015 (Local Time) from KJQF Reporting Station
Clear Clear  
Wind Chill:   Ceiling: Unl
Heat Index:   Visibility: 10mi
Dew Point: -9°   Wind: 3mph
Humidity: 51%   Direction: 310°NW
Pressure: 30.08"   Gusts: NA
Location:  35.41°N, 80.58°W
Report Text: KJQF 280635Z AUTO 31003KT 10SM CLR 00/M09 A3008 RMK AO2
Loading
Personal Weather Stations






























Interactive Weather Map New forecast layout! Learn more

10-Day Weather Forecast

Advertisements
Track Severe Weather on mobile